Cape Lisburne, Alaska
Current Conditions -  °F | °C
As of 8:55 AM on Monday 20 Oct 2014 (Local Time) from PALU Reporting Station
Freezing Rain Freezing Rain  
Wind Chill: 10°   Ceiling: 1400
Heat Index: 26°   Visibility: 6mi
Dew Point: 23°   Wind: 28mph
Humidity: 89%   Direction: 70°ENE
Pressure: 29.65"   Gusts: NA
Location:  68.88°N, 166.11°W
Report Text: PALU 201655Z AUTO 07024KT 6SM -FZRA OVC014 M03/M05 A2965 RMK AO2 PK WND 06033/1606 SLP039 P0000 T10351051
Loading
Personal Weather Stations






























Interactive Weather Map
Tropical Storm Tracking
New forecast layout! Learn more

10-Day Weather Forecast

Advertisements
Track Severe Weather on mobile